createdAt,value
2019-01-26T00:01:08.824Z,90.68
2019-01-26T00:03:40.623Z,90.61
2019-01-26T00:06:12.164Z,90.52
2019-01-26T00:08:44.753Z,90.64
2019-01-26T00:11:16.372Z,90.84
2019-01-26T00:13:47.829Z,90.66
2019-01-26T00:16:21.162Z,90.52
2019-01-26T00:18:52.909Z,90.02
2019-01-26T00:21:24.611Z,89.77
2019-01-26T00:23:56.008Z,89.75
2019-01-26T00:26:27.565Z,89.69
2019-01-26T00:28:59.223Z,89.87
2019-01-26T00:31:30.923Z,90.17
2019-01-26T00:34:02.311Z,89.99
2019-01-26T00:36:33.727Z,89.95
2019-01-26T00:39:07.403Z,89.80
2019-01-26T00:41:39.115Z,89.79
2019-01-26T00:44:10.721Z,90.02
2019-01-26T00:46:42.455Z,90.14
2019-01-26T00:49:13.936Z,90.15
2019-01-26T00:51:45.284Z,89.61
2019-01-26T00:54:16.934Z,89.60
2019-01-26T00:56:48.623Z,89.46
2019-01-26T00:59:19.940Z,89.48
2019-01-26T01:01:51.465Z,89.79
2019-01-26T01:04:23.250Z,89.40
2019-01-26T01:06:54.798Z,89.69
2019-01-26T01:09:26.050Z,89.60
2019-01-26T01:11:57.787Z,89.39
2019-01-26T01:14:29.371Z,89.46
2019-01-26T01:17:00.967Z,89.70
2019-01-26T01:19:32.617Z,90.05
2019-01-26T01:22:04.039Z,90.54
2019-01-26T01:24:35.382Z,90.75
2019-01-26T01:27:06.892Z,90.83
2019-01-26T01:29:38.113Z,91.16
2019-01-26T01:32:09.718Z,91.28
2019-01-26T01:34:41.004Z,91.16
2019-01-26T01:37:12.543Z,91.18
2019-01-26T01:39:43.781Z,90.88
2019-01-26T01:42:15.112Z,90.65
2019-01-26T01:44:46.708Z,90.48
2019-01-26T01:47:18.102Z,90.44
2019-01-26T01:49:49.713Z,90.20
2019-01-26T01:52:21.169Z,90.12
2019-01-26T01:54:52.542Z,89.66
2019-01-26T01:57:24.094Z,89.59
2019-01-26T01:59:55.848Z,89.35
2019-01-26T02:02:27.279Z,89.55
2019-01-26T02:04:58.700Z,89.48
2019-01-26T02:07:30.008Z,89.46
2019-01-26T02:10:01.490Z,89.56
2019-01-26T02:12:32.989Z,89.19
2019-01-26T02:15:04.789Z,89.34
2019-01-26T02:17:36.320Z,88.87
2019-01-26T02:20:09.668Z,89.05
2019-01-26T02:22:41.262Z,89.25
2019-01-26T02:25:13.540Z,88.99
2019-01-26T02:27:45.279Z,88.94
2019-01-26T02:30:19.569Z,89.04
2019-01-26T02:32:50.931Z,89.14
2019-01-26T02:35:22.559Z,89.27
2019-01-26T02:37:53.935Z,89.45
2019-01-26T02:40:25.558Z,89.17
2019-01-26T02:42:57.266Z,88.71
2019-01-26T02:45:28.772Z,88.54
2019-01-26T02:48:00.167Z,88.50
2019-01-26T02:50:31.739Z,88.22
2019-01-26T02:53:02.933Z,87.95
2019-01-26T02:55:34.364Z,87.88
2019-01-26T02:58:05.660Z,87.70
2019-01-26T03:00:37.116Z,87.59
2019-01-26T03:03:08.500Z,87.65
2019-01-26T03:05:40.415Z,87.73
2019-01-26T03:08:11.871Z,87.52
2019-01-26T03:10:44.386Z,87.43
2019-01-26T03:13:16.046Z,87.32
2019-01-26T03:15:47.699Z,87.46
2019-01-26T03:18:18.984Z,86.88
2019-01-26T03:20:50.531Z,86.79
2019-01-26T03:23:22.134Z,87.03
2019-01-26T03:25:53.729Z,86.70
2019-01-26T03:28:25.156Z,86.71
2019-01-26T03:30:56.491Z,86.55
2019-01-26T03:33:27.908Z,86.56
2019-01-26T03:35:59.360Z,86.82
2019-01-26T03:38:30.973Z,86.78
2019-01-26T03:41:02.199Z,86.29
2019-01-26T03:43:33.529Z,86.01
2019-01-26T03:46:05.287Z,85.70
2019-01-26T03:48:36.920Z,85.61
2019-01-26T03:51:08.313Z,85.15
2019-01-26T03:53:39.951Z,85.38
2019-01-26T03:56:11.387Z,85.65
2019-01-26T03:58:43.063Z,85.69
2019-01-26T04:01:14.711Z,85.60
2019-01-26T04:03:46.427Z,86.03
2019-01-26T04:06:17.902Z,85.45
2019-01-26T04:08:49.453Z,85.05
2019-01-26T04:11:21.021Z,85.16
2019-01-26T04:13:52.372Z,85.47
2019-01-26T04:16:23.993Z,85.24
2019-01-26T04:18:55.563Z,84.92
2019-01-26T04:21:27.219Z,85.02
2019-01-26T04:23:58.845Z,84.50
2019-01-26T04:26:30.275Z,84.64
2019-01-26T04:29:01.834Z,84.73
2019-01-26T04:31:33.094Z,84.39
2019-01-26T04:34:04.411Z,84.90
2019-01-26T04:36:35.868Z,84.67
2019-01-26T04:39:09.304Z,84.75
2019-01-26T04:41:40.755Z,84.72
2019-01-26T04:44:12.339Z,84.35
2019-01-26T04:46:44.000Z,84.24
2019-01-26T04:49:15.511Z,84.27
2019-01-26T04:51:47.187Z,84.30
2019-01-26T04:54:18.642Z,84.36
2019-01-26T04:56:50.317Z,84.19
2019-01-26T04:59:21.960Z,84.50
2019-01-26T05:01:53.483Z,84.31
2019-01-26T05:04:24.953Z,83.91
2019-01-26T05:06:56.275Z,84.00
2019-01-26T05:09:27.862Z,83.59
2019-01-26T05:11:59.067Z,83.78
2019-01-26T05:14:30.531Z,83.00
2019-01-26T05:17:02.100Z,82.83
2019-01-26T05:19:33.328Z,82.77
2019-01-26T05:22:04.796Z,83.21
2019-01-26T05:24:36.292Z,83.31
2019-01-26T05:27:07.501Z,83.16
2019-01-26T05:29:39.108Z,83.30
2019-01-26T05:32:10.582Z,83.21
2019-01-26T05:34:42.066Z,83.27
2019-01-26T05:37:13.379Z,83.11
2019-01-26T05:39:44.843Z,82.87
2019-01-26T05:42:16.363Z,82.98
2019-01-26T05:44:47.547Z,82.78
2019-01-26T05:47:18.856Z,82.81
2019-01-26T05:49:50.297Z,82.75
2019-01-26T05:52:21.591Z,82.75
2019-01-26T05:54:53.047Z,82.78
2019-01-26T05:57:24.713Z,82.17
2019-01-26T05:59:56.132Z,82.08
2019-01-26T06:02:27.889Z,81.81
2019-01-26T06:04:59.461Z,81.36
2019-01-26T06:07:31.139Z,81.73
2019-01-26T06:10:02.774Z,82.21
2019-01-26T06:12:34.262Z,81.79
2019-01-26T06:15:06.637Z,81.90
2019-01-26T06:17:38.403Z,81.90
2019-01-26T06:20:10.521Z,81.72
2019-01-26T06:22:42.213Z,81.68
2019-01-26T06:25:14.634Z,81.95
2019-01-26T06:27:47.262Z,81.99
2019-01-26T06:30:20.714Z,82.08
2019-01-26T06:32:52.204Z,81.60
2019-01-26T06:35:23.863Z,81.26
2019-01-26T06:37:55.492Z,81.44
2019-01-26T06:40:27.133Z,81.75
2019-01-26T06:42:58.386Z,81.53
2019-01-26T06:45:29.882Z,81.31
2019-01-26T06:48:02.274Z,81.33
2019-01-26T06:50:34.336Z,81.42
2019-01-26T06:53:06.344Z,80.98
2019-01-26T06:55:38.513Z,81.13
2019-01-26T06:58:10.062Z,81.20
2019-01-26T07:00:41.601Z,81.12
2019-01-26T07:03:12.946Z,81.19
2019-01-26T07:05:52.022Z,80.90
2019-01-26T07:08:24.257Z,80.56
2019-01-26T07:10:55.909Z,81.18
2019-01-26T07:13:27.403Z,81.24
2019-01-26T07:16:00.833Z,81.28
2019-01-26T07:18:32.638Z,81.38
2019-01-26T07:21:04.318Z,81.61
2019-01-26T07:23:35.930Z,81.61
2019-01-26T07:26:07.378Z,81.26
2019-01-26T07:28:38.889Z,81.11
2019-01-26T07:31:10.541Z,80.34
2019-01-26T07:33:41.977Z,80.61
2019-01-26T07:36:13.478Z,81.35
2019-01-26T07:38:44.796Z,81.36
2019-01-26T07:41:16.349Z,81.48
2019-01-26T07:43:47.742Z,81.58
2019-01-26T07:46:19.387Z,82.41
2019-01-26T07:48:50.845Z,82.80
2019-01-26T07:51:22.147Z,82.37
2019-01-26T07:53:54.358Z,82.51
2019-01-26T07:56:26.294Z,82.16
2019-01-26T07:58:57.507Z,82.27
2019-01-26T08:01:29.577Z,82.17
2019-01-26T08:04:01.317Z,82.32
2019-01-26T08:06:33.035Z,81.86
2019-01-26T08:09:06.283Z,81.65
2019-01-26T08:11:38.623Z,82.04
2019-01-26T08:14:11.098Z,82.18
2019-01-26T08:16:42.763Z,82.59
2019-01-26T08:19:14.318Z,82.16
2019-01-26T08:21:45.993Z,81.83
2019-01-26T08:24:17.704Z,82.26
2019-01-26T08:26:49.205Z,82.20
2019-01-26T08:29:20.905Z,81.85
2019-01-26T08:31:52.543Z,82.20
2019-01-26T08:34:23.879Z,81.63
2019-01-26T08:36:55.218Z,82.48
2019-01-26T08:39:26.698Z,81.80
2019-01-26T08:41:58.090Z,81.74
2019-01-26T08:44:29.607Z,81.56
2019-01-26T08:47:01.170Z,81.31
2019-01-26T08:49:32.705Z,81.04
2019-01-26T08:52:03.925Z,81.51
2019-01-26T08:54:35.375Z,81.48
2019-01-26T08:57:07.103Z,81.40
2019-01-26T08:59:38.418Z,80.98
2019-01-26T09:02:29.843Z,81.80
2019-01-26T09:05:01.598Z,82.09
2019-01-26T09:07:33.009Z,82.54
2019-01-26T09:10:04.586Z,82.38
2019-01-26T09:12:35.926Z,82.58
2019-01-26T09:15:09.186Z,82.36
2019-01-26T09:17:40.660Z,82.34
2019-01-26T09:20:12.242Z,81.74
2019-01-26T09:22:45.442Z,81.82
2019-01-26T09:25:16.748Z,81.67
2019-01-26T09:27:48.544Z,81.48
2019-01-26T09:30:20.269Z,81.05
2019-01-26T09:32:51.947Z,80.62
2019-01-26T09:35:23.538Z,80.71
2019-01-26T09:37:55.235Z,80.68
2019-01-26T09:40:26.773Z,80.71
2019-01-26T09:42:58.222Z,80.51
2019-01-26T09:45:29.585Z,80.57
2019-01-26T09:48:00.937Z,80.48
2019-01-26T09:50:32.272Z,79.28
2019-01-26T09:53:03.699Z,79.04
2019-01-26T09:55:35.066Z,78.01
2019-01-26T09:58:06.557Z,77.85
2019-01-26T10:00:38.264Z,77.68
2019-01-26T10:03:09.822Z,77.64
2019-01-26T10:05:41.529Z,77.37
2019-01-26T10:08:13.012Z,78.23
2019-01-26T10:10:44.886Z,78.22
2019-01-26T10:13:16.612Z,77.80
2019-01-26T10:15:48.066Z,78.14
2019-01-26T10:18:19.930Z,77.99
2019-01-26T10:20:51.147Z,77.98
2019-01-26T10:23:22.771Z,77.50
2019-01-26T10:25:54.414Z,77.27
2019-01-26T10:28:26.012Z,77.27
2019-01-26T10:31:00.908Z,77.38
2019-01-26T10:33:32.596Z,77.58
2019-01-26T10:36:23.011Z,77.11
2019-01-26T10:39:00.566Z,77.00
2019-01-26T10:41:58.227Z,76.67
2019-01-26T10:44:31.131Z,76.62
2019-01-26T10:47:02.578Z,76.17
2019-01-26T10:49:34.173Z,76.46
2019-01-26T10:52:06.065Z,76.19
2019-01-26T10:54:37.591Z,75.93
2019-01-26T10:57:09.094Z,75.70
2019-01-26T10:59:40.548Z,74.89
2019-01-26T11:02:12.277Z,74.96
2019-01-26T11:04:43.702Z,74.68
2019-01-26T11:07:15.890Z,75.15
2019-01-26T11:09:47.739Z,75.19
2019-01-26T11:12:19.130Z,74.80
2019-01-26T11:14:50.376Z,75.40
2019-01-26T11:17:23.216Z,75.97
2019-01-26T11:19:55.005Z,76.17
2019-01-26T11:22:26.324Z,75.73
2019-01-26T11:24:57.770Z,76.11
2019-01-26T11:27:29.177Z,77.12
2019-01-26T11:30:00.544Z,76.20
2019-01-26T11:32:31.842Z,75.78
2019-01-26T11:35:03.248Z,76.16
2019-01-26T11:37:34.729Z,76.58
2019-01-26T11:40:19.688Z,77.17
2019-01-26T11:42:51.175Z,77.67
2019-01-26T11:45:56.341Z,77.69
2019-01-26T11:48:31.998Z,77.84
2019-01-26T11:51:16.582Z,78.03
2019-01-26T11:53:48.535Z,78.85
2019-01-26T11:56:27.690Z,78.63
2019-01-26T11:58:59.224Z,78.38
2019-01-26T12:01:55.846Z,77.82
2019-01-26T12:04:44.912Z,77.79
2019-01-26T12:07:19.108Z,77.26
2019-01-26T12:09:50.816Z,77.70
2019-01-26T12:12:22.155Z,77.66
2019-01-26T12:14:53.503Z,77.68
2019-01-26T12:17:24.862Z,77.44
2019-01-26T12:19:56.090Z,77.38
2019-01-26T12:22:27.721Z,77.16
2019-01-26T12:24:59.074Z,77.70
2019-01-26T12:27:30.648Z,77.60
2019-01-26T12:30:02.244Z,78.06
2019-01-26T12:32:33.487Z,78.20
2019-01-26T12:35:05.721Z,77.93
2019-01-26T12:37:36.948Z,77.54
2019-01-26T12:40:09.212Z,77.57
2019-01-26T12:42:40.620Z,77.65
2019-01-26T12:45:15.178Z,77.16
2019-01-26T12:47:46.402Z,77.15
2019-01-26T12:50:17.992Z,76.83
2019-01-26T12:52:49.716Z,77.34
2019-01-26T12:55:21.358Z,77.71
2019-01-26T12:57:52.843Z,77.72
2019-01-26T13:00:24.325Z,77.02
2019-01-26T13:02:55.878Z,76.96
2019-01-26T13:05:27.401Z,77.05
2019-01-26T13:07:59.163Z,76.82
2019-01-26T13:10:34.099Z,77.09
2019-01-26T13:13:07.010Z,77.20
2019-01-26T13:15:39.505Z,77.04
2019-01-26T13:18:11.157Z,77.89
2019-01-26T13:20:42.769Z,77.22
2019-01-26T13:23:14.648Z,77.13
2019-01-26T13:25:46.167Z,77.43
2019-01-26T13:28:17.995Z,77.39
2019-01-26T13:30:49.374Z,76.64
2019-01-26T13:33:20.977Z,76.75
2019-01-26T13:35:52.532Z,76.20
2019-01-26T13:38:23.931Z,76.28
2019-01-26T13:40:55.352Z,76.96
2019-01-26T13:43:27.179Z,76.75
2019-01-26T13:45:58.941Z,76.85
2019-01-26T13:48:30.742Z,76.65
2019-01-26T13:51:02.436Z,76.75
2019-01-26T13:53:33.777Z,77.02
2019-01-26T13:56:05.551Z,76.76
2019-01-26T13:58:37.412Z,76.76
2019-01-26T14:01:08.972Z,77.06
2019-01-26T14:03:40.559Z,76.61
2019-01-26T14:06:12.094Z,76.11
2019-01-26T14:08:43.641Z,76.13
2019-01-26T14:11:15.036Z,76.03
2019-01-26T14:13:47.287Z,76.82
2019-01-26T14:16:18.735Z,77.00
2019-01-26T14:18:50.329Z,77.56
2019-01-26T14:21:21.901Z,77.69
2019-01-26T14:23:54.589Z,77.92
2019-01-26T14:26:26.121Z,78.11
2019-01-26T14:28:57.816Z,78.52
2019-01-26T14:31:29.338Z,79.06
2019-01-26T14:34:00.652Z,79.43
2019-01-26T14:36:32.042Z,79.42
2019-01-26T14:39:05.443Z,80.41
2019-01-26T14:41:37.101Z,80.45
2019-01-26T14:44:08.823Z,80.43
2019-01-26T14:46:40.635Z,80.89
2019-01-26T14:49:12.277Z,81.09
2019-01-26T14:51:43.571Z,81.00
2019-01-26T14:54:15.071Z,80.88
2019-01-26T14:56:46.783Z,80.73
2019-01-26T14:59:17.982Z,81.23
2019-01-26T15:01:49.280Z,80.86
2019-01-26T15:04:20.962Z,81.23
2019-01-26T15:06:52.667Z,81.38
2019-01-26T15:09:24.354Z,81.53
2019-01-26T15:11:56.397Z,81.61
2019-01-26T15:14:29.190Z,81.63
2019-01-26T15:17:00.788Z,81.32
2019-01-26T15:19:32.435Z,80.95
2019-01-26T15:22:04.064Z,80.76
2019-01-26T15:24:35.781Z,80.88
2019-01-26T15:27:07.791Z,81.31
2019-01-26T15:29:39.882Z,81.12
2019-01-26T15:32:11.603Z,81.23
2019-01-26T15:34:43.017Z,81.11
2019-01-26T15:37:14.998Z,81.46
2019-01-26T15:39:46.956Z,80.81
2019-01-26T15:42:18.448Z,80.80
2019-01-26T15:44:49.960Z,80.92
2019-01-26T15:47:21.180Z,81.31
2019-01-26T15:49:52.736Z,81.53
2019-01-26T15:52:24.378Z,81.70
2019-01-26T15:54:55.616Z,81.68
2019-01-26T15:57:27.424Z,81.53
2019-01-26T15:59:59.086Z,81.81
2019-01-26T16:02:30.367Z,82.08
2019-01-26T16:05:02.039Z,82.35
2019-01-26T16:07:33.496Z,82.21
2019-01-26T16:10:05.340Z,82.51
2019-01-26T16:12:36.757Z,82.36
2019-01-26T16:15:10.823Z,82.31
2019-01-26T16:17:43.078Z,82.47
2019-01-26T16:20:20.241Z,82.64
2019-01-26T16:22:49.193Z,82.16
2019-01-26T16:25:20.517Z,82.01
2019-01-26T16:27:51.998Z,82.21
2019-01-26T16:30:26.165Z,82.34
2019-01-26T16:32:57.711Z,81.78
2019-01-26T16:35:29.577Z,81.87
2019-01-26T16:38:01.129Z,81.54
2019-01-26T16:40:34.100Z,81.66
2019-01-26T16:43:06.770Z,82.09
2019-01-26T16:45:39.956Z,81.58
2019-01-26T16:48:13.667Z,81.64
2019-01-26T16:50:45.120Z,81.82
2019-01-26T16:53:17.117Z,81.88
2019-01-26T16:55:48.861Z,81.46
2019-01-26T16:58:20.204Z,81.58
2019-01-26T17:00:54.018Z,81.42
2019-01-26T17:03:25.567Z,81.41
2019-01-26T17:05:57.326Z,81.78
2019-01-26T17:08:28.893Z,81.87
2019-01-26T17:11:00.095Z,81.99
2019-01-26T17:13:31.356Z,81.92
2019-01-26T17:16:03.415Z,82.38
2019-01-26T17:18:34.963Z,82.29
2019-01-26T17:21:06.727Z,82.14
2019-01-26T17:23:38.606Z,81.75
2019-01-26T17:26:10.124Z,81.60
2019-01-26T17:28:41.769Z,81.91
2019-01-26T17:31:13.224Z,82.02
2019-01-26T17:33:44.909Z,81.76
2019-01-26T17:36:16.372Z,80.87
2019-01-26T17:38:47.890Z,80.70
2019-01-26T17:41:19.322Z,80.79
2019-01-26T17:43:50.821Z,80.96
2019-01-26T17:46:22.474Z,80.89
2019-01-26T17:48:54.113Z,80.65
2019-01-26T17:51:25.354Z,80.61
2019-01-26T17:53:56.894Z,80.37
2019-01-26T17:56:28.591Z,80.35
2019-01-26T17:59:00.015Z,80.63
2019-01-26T18:01:31.652Z,80.59
2019-01-26T18:04:03.454Z,80.88
2019-01-26T18:06:35.174Z,80.96
2019-01-26T18:09:09.293Z,81.50
2019-01-26T18:11:41.266Z,81.52
2019-01-26T18:14:12.636Z,81.40
2019-01-26T18:16:44.230Z,81.56
2019-01-26T18:19:15.589Z,81.82
2019-01-26T18:21:47.115Z,81.97
2019-01-26T18:24:18.808Z,81.51
2019-01-26T18:26:50.853Z,81.26
2019-01-26T18:29:22.623Z,80.69
2019-01-26T18:31:54.056Z,81.06
2019-01-26T18:34:25.268Z,81.04
2019-01-26T18:36:56.898Z,80.92
2019-01-26T18:39:28.248Z,80.52
2019-01-26T18:41:59.562Z,80.88
2019-01-26T18:44:30.736Z,81.02
2019-01-26T18:47:02.263Z,81.34
2019-01-26T18:49:33.868Z,81.60
2019-01-26T18:52:05.340Z,81.39
2019-01-26T18:54:36.572Z,81.01
2019-01-26T18:57:08.017Z,80.65
2019-01-26T18:59:39.369Z,80.65
2019-01-26T19:02:10.993Z,80.92
2019-01-26T19:04:49.697Z,80.77
2019-01-26T19:07:21.262Z,80.67
2019-01-26T19:09:52.929Z,80.68
2019-01-26T19:12:24.658Z,80.18
2019-01-26T19:14:56.438Z,79.83
2019-01-26T19:17:28.203Z,80.02
2019-01-26T19:19:59.795Z,79.52
2019-01-26T19:22:31.190Z,79.81
2019-01-26T19:25:02.758Z,79.79
2019-01-26T19:27:34.099Z,79.64
2019-01-26T19:30:06.561Z,79.83
2019-01-26T19:32:38.067Z,79.42
2019-01-26T19:35:09.958Z,79.40
2019-01-26T19:37:41.163Z,79.34
2019-01-26T19:40:20.276Z,79.58
2019-01-26T19:42:53.573Z,79.56
2019-01-26T19:45:25.786Z,79.30
2019-01-26T19:47:57.142Z,79.57
2019-01-26T19:50:28.623Z,79.56
2019-01-26T19:52:59.899Z,79.34
2019-01-26T19:55:31.431Z,79.75
2019-01-26T19:58:02.732Z,79.68
2019-01-26T20:00:36.376Z,79.81
2019-01-26T20:03:08.317Z,79.43
2019-01-26T20:05:39.771Z,79.34
2019-01-26T20:08:11.324Z,80.26
2019-01-26T20:10:42.761Z,80.55
2019-01-26T20:13:14.205Z,79.96
2019-01-26T20:15:45.527Z,79.95
2019-01-26T20:18:17.180Z,79.91
2019-01-26T20:20:48.817Z,80.14
2019-01-26T20:23:20.225Z,80.17
2019-01-26T20:25:51.795Z,80.03
2019-01-26T20:28:23.238Z,80.10
2019-01-26T20:30:54.551Z,80.15
2019-01-26T20:33:26.001Z,80.57
2019-01-26T20:35:57.988Z,80.05
2019-01-26T20:38:29.547Z,80.08
2019-01-26T20:41:00.745Z,80.25
2019-01-26T20:43:31.960Z,80.57
2019-01-26T20:46:04.214Z,80.81
2019-01-26T20:48:35.678Z,80.95
2019-01-26T20:51:07.044Z,80.69
2019-01-26T20:53:38.598Z,81.21
2019-01-26T20:56:09.982Z,81.23
2019-01-26T20:58:41.262Z,81.31
2019-01-26T21:01:12.621Z,81.05
2019-01-26T21:03:44.078Z,81.24
2019-01-26T21:06:16.664Z,81.28
2019-01-26T21:08:48.946Z,81.12
2019-01-26T21:11:20.742Z,81.27
2019-01-26T21:13:52.419Z,81.26
2019-01-26T21:16:24.871Z,81.56
2019-01-26T21:18:56.289Z,81.32
2019-01-26T21:21:31.968Z,81.14
2019-01-26T21:24:00.995Z,81.50
2019-01-26T21:26:32.429Z,81.44
2019-01-26T21:29:03.777Z,81.33
2019-01-26T21:31:35.480Z,81.21
2019-01-26T21:34:07.072Z,81.40
2019-01-26T21:36:38.729Z,81.59
2019-01-26T21:39:10.595Z,81.22
2019-01-26T21:41:42.466Z,81.01
2019-01-26T21:44:14.147Z,81.13
2019-01-26T21:46:45.683Z,80.99
2019-01-26T21:49:17.164Z,81.24
2019-01-26T21:51:48.745Z,80.93
2019-01-26T21:54:20.049Z,80.77
2019-01-26T21:56:51.381Z,80.92
2019-01-26T21:59:23.032Z,81.00
2019-01-26T22:01:54.350Z,81.20
2019-01-26T22:04:25.845Z,81.56
2019-01-26T22:06:57.261Z,81.60
2019-01-26T22:09:28.533Z,82.01
2019-01-26T22:12:00.213Z,81.70
2019-01-26T22:14:31.564Z,81.82
2019-01-26T22:17:03.057Z,82.00
2019-01-26T22:19:34.970Z,81.99
2019-01-26T22:22:07.015Z,81.96
2019-01-26T22:24:38.721Z,81.67
2019-01-26T22:27:10.055Z,81.14
2019-01-26T22:29:41.546Z,81.62
2019-01-26T22:32:13.226Z,81.87
2019-01-26T22:34:45.068Z,81.97
2019-01-26T22:37:16.487Z,82.02
2019-01-26T22:39:47.763Z,82.29
2019-01-26T22:42:19.147Z,82.36
2019-01-26T22:44:50.340Z,82.48
2019-01-26T22:47:21.727Z,82.82
2019-01-26T22:49:53.355Z,82.82
2019-01-26T22:52:24.604Z,82.24
2019-01-26T22:54:56.042Z,82.64
2019-01-26T22:57:27.500Z,82.88
2019-01-26T22:59:58.946Z,83.17
2019-01-26T23:02:30.635Z,82.99
2019-01-26T23:05:57.715Z,83.17
2019-01-26T23:08:30.955Z,83.14
2019-01-26T23:11:24.657Z,83.31
2019-01-26T23:14:44.263Z,83.15
2019-01-26T23:17:40.158Z,82.95
2019-01-26T23:20:40.607Z,82.70
2019-01-26T23:23:36.809Z,82.60
2019-01-26T23:26:17.325Z,82.77
2019-01-26T23:29:11.450Z,82.90
2019-01-26T23:31:42.875Z,83.24
2019-01-26T23:34:14.738Z,83.33
2019-01-26T23:36:46.091Z,82.98
2019-01-26T23:39:17.615Z,82.98
2019-01-26T23:41:49.141Z,83.10
2019-01-26T23:44:20.319Z,82.97
2019-01-26T23:46:51.569Z,82.73
2019-01-26T23:49:22.960Z,82.63
2019-01-26T23:51:54.570Z,82.77
2019-01-26T23:54:26.090Z,82.75
2019-01-26T23:56:57.696Z,82.49
2019-01-26T23:59:29.167Z,82.25
